LELC/MJV METAR and TAF weather

Enter ICAO airport designator
Station Type Date Time Source
LELC METAR 2022/06/30 01:00 UTC NOAA

LELC 300100Z AUTO 27002KT 9000 NCD 22/20 Q1011


Station Type Date Time Source
LELC Decoded METAR 2022/06/30 01:00 UTC NOAA

Murcia / San Javier, Spain (LELC) 37-47N 000-48W 3M
Jun 29, 2022 - 09:00 PM EDT / 2022.06.30 0100 UTC
Wind: from the W (270 degrees) at 2 MPH (2 KT):0
Visibility: 5 mile(s):0
Temperature: 71 F (22 C)
Dew Point: 68 F (20 C)
Relative Humidity: 88%
Pressure (altimeter): 29.85 in. Hg (1011 hPa)
ob: LELC 300100Z AUTO 27002KT 9000 NCD 22/20 Q1011
cycle: 1

Station Type Date Time Source
LELC TAF 2022/06/29 18:27 UTC NOAA

TAF LELC 291700Z 2918/3018 14010KT 9999 FEW015 TX27/3014Z TN19/3005Z
BECMG 2919/2921 23005KT
BECMG 3008/3010 16010KT

Example: see airport list